Time;durP1;ratioP1;P1;durP2;ratioP2;P2;SDS_P1;SDS_P2;PMS_P1;PMS_P2;Temp;Humidity;BMP_temperature;BMP_pressure;BME280_temperature;BME280_humidity;BME280_pressure;Samples;Min_cycle;Max_cycle;Signal;HPM_P1;HPM_P2
2022/10/28 00:01:28;;;;;;;0.10;0.10;;;;;;;13.41;100.00;97147.22;4950402;28;20679;-74
2022/10/28 00:04:14;;;;;;;0.15;0.13;;;;;;;13.47;100.00;97148.09;4950956;28;20517;-74
2022/10/28 00:07:00;;;;;;;0.10;0.10;;;;;;;13.50;100.00;97148.41;4954398;28;20074;-75
2022/10/28 00:09:46;;;;;;;0.10;0.10;;;;;;;13.57;100.00;97146.34;4953702;28;20042;-75
2022/10/28 00:12:36;;;;;;;0.10;0.10;;;;;;;13.56;100.00;97135.84;4953942;28;20487;-75
2022/10/28 00:15:22;;;;;;;0.10;0.10;;;;;;;13.54;100.00;97149.53;4951666;28;20542;-76
2022/10/28 00:18:08;;;;;;;0.10;0.10;;;;;;;13.57;100.00;97138.28;4952777;28;20642;-75
2022/10/28 00:21:00;;;;;;;0.10;0.10;;;;;;;13.52;100.00;97130.13;4952916;28;20073;-75
2022/10/28 00:23:46;;;;;;;0.10;0.10;;;;;;;13.49;100.00;97136.03;4954426;28;20081;-76
2022/10/28 00:26:35;;;;;;;0.10;0.10;;;;;;;13.47;100.00;97130.09;4954003;28;20531;-75
2022/10/28 00:29:21;;;;;;;0.10;0.10;;;;;;;13.48;100.00;97129.03;4955976;28;20305;-73
2022/10/28 00:32:07;;;;;;;0.17;0.10;;;;;;;13.49;100.00;97127.97;4951391;28;20317;-76
2022/10/28 00:34:53;;;;;;;0.10;0.10;;;;;;;13.52;100.00;97122.06;4955276;28;20479;-74
2022/10/28 00:37:38;;;;;;;0.10;0.10;;;;;;;13.53;100.00;97121.00;4953664;28;20070;-75
2022/10/28 00:40:24;;;;;;;0.10;0.10;;;;;;;13.56;100.00;97114.34;4950868;28;20340;-74
2022/10/28 00:43:10;;;;;;;0.17;0.10;;;;;;;13.58;100.00;97113.00;4952646;28;20042;-75
2022/10/28 00:45:56;;;;;;;0.10;0.10;;;;;;;13.61;100.00;97123.25;4953049;28;20447;-75
2022/10/28 00:48:45;;;;;;;0.10;0.10;;;;;;;13.61;100.00;97117.88;4955826;28;20129;-75
2022/10/28 00:51:34;;;;;;;0.20;0.20;;;;;;;13.56;100.00;97111.66;4956074;28;20597;-74
2022/10/28 00:54:21;;;;;;;0.10;0.10;;;;;;;13.59;100.00;97108.44;4950797;28;20046;-73
2022/10/28 00:57:11;;;;;;;0.10;0.10;;;;;;;13.62;100.00;97107.97;4952690;28;20046;-74
2022/10/28 01:00:00;;;;;;;0.10;0.10;;;;;;;13.62;100.00;97092.63;4955332;28;20047;-75
2022/10/28 01:02:47;;;;;;;0.10;0.10;;;;;;;13.75;100.00;97086.03;4951307;28;20551;-75
2022/10/28 01:05:37;;;;;;;0.10;0.10;;;;;;;13.83;100.00;97076.69;4954060;28;20069;-76
2022/10/28 01:08:23;;;;;;;0.10;0.10;;;;;;;13.90;100.00;97064.66;4952294;28;20491;-75
2022/10/28 01:11:27;;;;;;;0.10;0.10;;;;;;;13.88;100.00;97082.94;4953759;28;20101;-74
2022/10/28 01:14:25;;;;;;;0.10;0.10;;;;;;;13.83;100.00;97077.50;4952586;28;20416;-76
2022/10/28 01:17:28;;;;;;;0.10;0.10;;;;;;;13.80;100.00;97085.28;4953406;28;20149;-76
2022/10/28 01:20:27;;;;;;;0.10;0.10;;;;;;;13.79;100.00;97091.72;4949160;28;20125;-74
2022/10/28 01:23:54;;;;;;;0.10;0.10;;;;;;;13.77;100.00;97083.06;4950352;28;20154;-75
2022/10/28 01:27:13;;;;;;;0.00;0.00;;;;;;;13.77;100.00;97086.56;4945532;28;20077;-74
2022/10/28 01:30:07;;;;;;;0.17;0.10;;;;;;;13.77;100.00;97083.06;4955146;28;20305;-75
2022/10/28 01:33:07;;;;;;;0.10;0.10;;;;;;;13.71;100.00;97084.91;4952184;28;20572;-77
2022/10/28 01:36:12;;;;;;;0.20;0.20;;;;;;;13.74;100.00;97080.91;4953200;28;20039;-74
2022/10/28 01:39:30;;;;;;;0.10;0.10;;;;;;;13.76;100.00;97086.84;4952103;28;20484;-76
2022/10/28 01:42:28;;;;;;;0.15;0.10;;;;;;;13.79;100.00;97102.47;4929868;28;20082;-74
2022/10/28 01:45:33;;;;;;;0.10;0.10;;;;;;;13.78;100.00;97111.63;4953634;28;20404;-75
2022/10/28 01:48:54;;;;;;;0.10;0.10;;;;;;;13.76;100.00;97113.72;4955615;28;20054;-75
2022/10/28 01:51:48;;;;;;;0.20;0.20;;;;;;;13.73;100.00;97098.91;4954068;28;20495;-75
2022/10/28 01:54:36;;;;;;;0.10;0.10;;;;;;;13.74;100.00;97097.84;4953959;28;20246;-77
2022/10/28 01:57:24;;;;;;;0.20;0.20;;;;;;;13.71;100.00;97087.63;4949573;28;20035;-77
2022/10/28 02:00:11;;;;;;;0.10;0.10;;;;;;;13.80;100.00;97093.34;4939088;28;20415;-75
2022/10/28 02:03:00;;;;;;;0.10;0.10;;;;;;;13.79;100.00;97092.53;4955621;28;20047;-75
2022/10/28 02:05:57;;;;;;;0.10;0.10;;;;;;;13.79;100.00;97086.34;4939465;28;20499;-77
2022/10/28 02:09:02;;;;;;;0.10;0.10;;;;;;;13.75;100.00;97083.34;4955079;28;20047;-76
2022/10/28 02:12:06;;;;;;;0.10;0.10;;;;;;;13.69;100.00;97078.16;4953440;28;20039;-77
2022/10/28 02:15:07;;;;;;;0.10;0.10;;;;;;;13.65;100.00;97081.34;4952671;28;20089;-74
2022/10/28 02:17:59;;;;;;;0.10;0.10;;;;;;;13.63;100.00;97071.94;4940089;28;20045;-75
2022/10/28 02:20:54;;;;;;;0.10;0.10;;;;;;;13.70;100.00;97055.59;4953937;28;20132;-76
2022/10/28 02:23:51;;;;;;;0.10;0.10;;;;;;;13.80;100.00;97050.31;4948524;28;20146;-76
2022/10/28 02:26:46;;;;;;;0.10;0.10;;;;;;;13.87;100.00;97048.22;4952070;28;20132;-74
2022/10/28 02:29:40;;;;;;;0.10;0.10;;;;;;;13.90;100.00;97047.72;4953921;28;20042;-75
2022/10/28 02:32:29;;;;;;;0.10;0.10;;;;;;;13.92;100.00;97041.00;4948698;28;20098;-75
2022/10/28 02:35:31;;;;;;;0.10;0.10;;;;;;;13.86;100.00;97036.66;4950244;28;20149;-76
2022/10/28 02:38:27;;;;;;;0.10;0.10;;;;;;;13.85;100.00;97037.72;4949333;28;20042;-75
2022/10/28 02:41:34;;;;;;;0.32;0.20;;;;;;;13.88;100.00;97047.16;4954182;28;20043;-75
2022/10/28 02:44:27;;;;;;;0.20;0.20;;;;;;;13.91;100.00;97052.00;4951680;28;20410;-73
2022/10/28 02:47:18;;;;;;;0.10;0.10;;;;;;;13.92;100.00;97049.06;4951350;28;20466;-73
2022/10/28 02:50:08;;;;;;;0.20;0.10;;;;;;;13.89;100.00;97038.03;4950519;28;20295;-76
2022/10/28 02:52:58;;;;;;;0.10;0.10;;;;;;;13.90;100.00;97031.56;4949733;28;20533;-72
2022/10/28 02:55:51;;;;;;;0.10;0.10;;;;;;;13.93;100.00;97031.88;4954648;28;20117;-75
2022/10/28 02:58:39;;;;;;;0.15;0.15;;;;;;;13.98;100.00;97036.47;4948978;28;20128;-75
2022/10/28 03:01:25;;;;;;;0.13;0.13;;;;;;;13.99;100.00;97021.97;4948555;28;20314;-74
2022/10/28 03:04:10;;;;;;;0.10;0.10;;;;;;;14.06;100.00;97027.94;4953035;28;20047;-73
2022/10/28 03:06:56;;;;;;;0.10;0.10;;;;;;;14.02;100.00;97024.16;4951769;28;20063;-73
2022/10/28 03:09:42;;;;;;;0.10;0.10;;;;;;;14.01;100.00;97025.22;4938341;28;20380;-76
2022/10/28 03:12:28;;;;;;;0.13;0.10;;;;;;;13.99;100.00;97016.56;4950096;28;20041;-74
2022/10/28 03:15:14;;;;;;;0.10;0.10;;;;;;;14.04;100.00;97018.50;4948322;28;20043;-74
2022/10/28 03:17:59;;;;;;;0.10;0.10;;;;;;;14.07;100.00;97021.47;4950057;28;20391;-76
2022/10/28 03:20:46;;;;;;;0.10;0.10;;;;;;;14.11;100.00;97014.53;4938067;28;20511;-76
2022/10/28 03:23:32;;;;;;;0.17;0.17;;;;;;;14.12;100.00;97021.53;4952872;28;20042;-75
2022/10/28 03:26:17;;;;;;;0.13;0.10;;;;;;;14.10;100.00;97015.59;4948244;28;20054;-74
2022/10/28 03:29:03;;;;;;;0.30;0.20;;;;;;;14.13;100.00;97016.97;4950471;28;20620;-76
2022/10/28 03:31:49;;;;;;;0.10;0.10;;;;;;;14.12;100.00;97004.59;4950372;28;20279;-73
2022/10/28 03:34:35;;;;;;;0.20;0.20;;;;;;;14.10;100.00;97006.72;4950744;28;20058;-75
2022/10/28 03:37:21;;;;;;;0.10;0.10;;;;;;;14.11;100.00;97011.03;4953795;28;20455;-74
2022/10/28 03:40:07;;;;;;;0.10;0.10;;;;;;;14.08;100.00;97014.22;4952877;28;20496;-76
2022/10/28 03:42:53;;;;;;;0.08;0.08;;;;;;;14.03;100.00;97016.88;4954814;28;20050;-75
2022/10/28 03:45:39;;;;;;;0.10;0.10;;;;;;;14.01;100.00;97005.56;4954793;28;20109;-74
2022/10/28 03:48:25;;;;;;;0.13;0.13;;;;;;;13.99;100.00;97011.19;4952434;28;20046;-73
2022/10/28 03:51:11;;;;;;;0.10;0.10;;;;;;;13.98;100.00;96998.81;4955270;28;20376;-74
2022/10/28 03:53:57;;;;;;;0.10;0.10;;;;;;;13.99;100.00;97007.69;4952624;28;20507;-74
2022/10/28 03:56:42;;;;;;;0.20;0.17;;;;;;;14.01;100.00;97045.91;4952590;28;20451;-74
2022/10/28 03:59:28;;;;;;;0.10;0.10;;;;;;;14.03;100.00;97044.59;4933802;28;20049;-73
2022/10/28 04:02:14;;;;;;;0.10;0.10;;;;;;;14.02;100.00;97032.22;4951757;28;20543;-74
2022/10/28 04:05:00;;;;;;;0.10;0.10;;;;;;;14.06;100.00;97019.06;4957124;28;20345;-75
2022/10/28 04:07:46;;;;;;;0.10;0.10;;;;;;;14.15;100.00;97025.59;4953114;28;20050;-75
2022/10/28 04:10:35;;;;;;;0.10;0.10;;;;;;;14.17;100.00;97018.91;4954753;28;20089;-74
2022/10/28 04:13:21;;;;;;;0.10;0.10;;;;;;;14.20;100.00;97014.88;4952523;28;20117;-75
2022/10/28 04:16:07;;;;;;;0.20;0.20;;;;;;;14.23;100.00;97012.47;4951622;28;20266;-75
2022/10/28 04:18:53;;;;;;;0.10;0.10;;;;;;;14.26;100.00;96999.56;4954336;28;20034;-74
2022/10/28 04:21:39;;;;;;;0.28;0.20;;;;;;;14.21;100.00;96998.44;4953797;28;20105;-73
2022/10/28 04:24:25;;;;;;;0.10;0.10;;;;;;;14.25;100.00;96992.56;4951727;28;20440;-75
2022/10/28 04:27:10;;;;;;;0.10;0.10;;;;;;;14.31;100.00;96986.13;4955122;28;20042;-75
2022/10/28 04:29:57;;;;;;;0.20;0.15;;;;;;;14.29;100.00;96988.28;4954183;28;20458;-74
2022/10/28 04:32:43;;;;;;;0.10;0.10;;;;;;;14.31;100.00;96980.75;4951962;28;20039;-74
2022/10/28 04:35:29;;;;;;;0.10;0.10;;;;;;;14.33;100.00;96974.06;4952333;28;20051;-75
2022/10/28 04:38:15;;;;;;;0.10;0.10;;;;;;;14.21;100.00;96963.47;4949907;28;20047;-74
2022/10/28 04:41:01;;;;;;;0.10;0.10;;;;;;;14.22;100.00;96967.78;4953411;28;20035;-76
2022/10/28 04:43:47;;;;;;;0.10;0.10;;;;;;;14.18;100.00;96965.88;4952575;28;20141;-76
2022/10/28 04:46:32;;;;;;;0.10;0.10;;;;;;;14.17;100.00;96967.75;4955876;28;20483;-76
2022/10/28 04:49:18;;;;;;;0.10;0.10;;;;;;;14.16;100.00;96968.00;4956981;28;20043;-75
2022/10/28 04:52:04;;;;;;;0.10;0.10;;;;;;;14.15;100.00;96969.88;4953066;28;20089;-76
2022/10/28 04:54:50;;;;;;;0.10;0.10;;;;;;;14.06;100.00;96963.34;4952659;28;20038;-73
2022/10/28 04:57:36;;;;;;;0.15;0.15;;;;;;;14.00;100.00;96961.69;4955518;28;20498;-76
2022/10/28 05:00:23;;;;;;;0.20;0.10;;;;;;;13.96;100.00;96974.06;4954490;28;20051;-74
2022/10/28 05:03:09;;;;;;;0.10;0.10;;;;;;;13.92;100.00;96978.31;4952511;28;20361;-75
2022/10/28 05:05:55;;;;;;;0.17;0.17;;;;;;;13.85;100.00;96980.41;4953669;28;20467;-75
2022/10/28 05:08:41;;;;;;;0.10;0.10;;;;;;;13.81;100.00;96988.19;4952404;28;20572;-75
2022/10/28 05:11:27;;;;;;;0.10;0.10;;;;;;;13.75;100.00;96978.44;4952146;28;20114;-75
2022/10/28 05:14:12;;;;;;;0.10;0.10;;;;;;;13.71;100.00;96987.28;4953523;28;20507;-74
2022/10/28 05:16:58;;;;;;;0.10;0.10;;;;;;;13.59;100.00;96980.19;4955249;28;20057;-75
2022/10/28 05:19:44;;;;;;;0.15;0.15;;;;;;;13.51;100.00;96977.16;4951943;28;20463;-76
2022/10/28 05:22:30;;;;;;;0.10;0.10;;;;;;;13.44;100.00;96968.47;4935807;28;20522;-76
2022/10/28 05:25:19;;;;;;;0.10;0.10;;;;;;;13.43;100.00;96973.03;4953943;28;20055;-76
2022/10/28 05:28:05;;;;;;;0.10;0.10;;;;;;;13.40;100.00;96976.25;4933541;28;20186;-76
2022/10/28 05:30:50;;;;;;;0.15;0.10;;;;;;;13.41;100.00;96966.31;4955579;28;20084;-76
2022/10/28 05:33:36;;;;;;;0.10;0.10;;;;;;;13.37;100.00;96964.09;4956156;28;20136;-76
2022/10/28 05:36:22;;;;;;;0.10;0.10;;;;;;;13.38;100.00;96959.53;4954687;28;20045;-75
2022/10/28 05:39:08;;;;;;;0.10;0.10;;;;;;;13.34;100.00;96956.56;4956370;28;20065;-78
2022/10/28 05:41:54;;;;;;;0.10;0.10;;;;;;;13.34;100.00;96955.75;4956493;28;20039;-77
2022/10/28 05:44:39;;;;;;;0.10;0.10;;;;;;;13.31;100.00;96959.78;4959866;28;20042;-77
2022/10/28 05:47:25;;;;;;;0.10;0.10;;;;;;;13.28;100.00;96962.13;4938720;28;20109;-76
2022/10/28 05:50:13;;;;;;;0.15;0.15;;;;;;;13.25;100.00;96968.03;4956345;28;20043;-76
2022/10/28 05:53:00;;;;;;;0.10;0.10;;;;;;;13.21;100.00;96964.22;4955295;28;20503;-77
2022/10/28 05:55:46;;;;;;;0.10;0.10;;;;;;;13.18;100.00;96968.19;4954098;28;20097;-78
2022/10/28 05:58:32;;;;;;;0.20;0.13;;;;;;;13.17;100.00;96971.94;4944137;28;20047;-76
2022/10/28 06:01:18;;;;;;;0.13;0.10;;;;;;;13.23;100.00;96970.13;4956537;28;20042;-76
2022/10/28 06:04:04;;;;;;;0.30;0.20;;;;;;;13.21;100.00;96969.59;4957376;28;20519;-77
2022/10/28 06:06:53;;;;;;;0.10;0.10;;;;;;;13.23;100.00;96965.59;4955813;28;20058;-76
2022/10/28 06:09:39;;;;;;;0.10;0.10;;;;;;;13.24;100.00;96977.97;4936883;28;20047;-77
2022/10/28 06:12:25;;;;;;;0.10;0.10;;;;;;;13.21;100.00;96969.59;4954748;28;20423;-76
2022/10/28 06:15:11;;;;;;;0.17;0.17;;;;;;;13.27;100.00;96982.00;4952835;28;20600;-74
2022/10/28 06:17:57;;;;;;;0.10;0.10;;;;;;;13.34;100.00;96988.00;4949972;28;20126;-74
2022/10/28 06:20:43;;;;;;;0.13;0.10;;;;;;;13.42;100.00;96994.81;4951702;28;20526;-75
2022/10/28 06:23:29;;;;;;;0.10;0.10;;;;;;;13.55;100.00;96999.78;4930625;28;20050;-74
2022/10/28 06:26:15;;;;;;;0.10;0.10;;;;;;;13.64;100.00;96993.69;4935415;28;20039;-74
2022/10/28 06:29:00;;;;;;;0.10;0.10;;;;;;;13.75;100.00;96999.97;4951574;28;20503;-74
2022/10/28 06:31:46;;;;;;;0.10;0.10;;;;;;;13.80;100.00;97001.91;4949463;28;20102;-75
2022/10/28 06:34:32;;;;;;;0.10;0.10;;;;;;;13.86;100.00;96998.19;4951566;28;20050;-75
2022/10/28 06:37:18;;;;;;;0.10;0.10;;;;;;;13.89;100.00;97006.53;4941154;28;20532;-74
2022/10/28 06:40:04;;;;;;;0.15;0.15;;;;;;;13.96;100.00;97009.03;4939479;28;20047;-75
2022/10/28 06:43:00;;;;;;;0.10;0.10;;;;;;;13.95;100.00;97010.09;4958059;28;20496;-76
2022/10/28 06:45:47;;;;;;;0.15;0.10;;;;;;;13.94;100.00;97003.09;4951938;28;20631;-76
2022/10/28 06:48:32;;;;;;;0.10;0.10;;;;;;;13.99;100.00;97013.88;4936966;28;20050;-76
2022/10/28 06:51:18;;;;;;;0.10;0.10;;;;;;;14.01;100.00;97006.38;4954200;28;20399;-75
2022/10/28 06:54:05;;;;;;;0.10;0.10;;;;;;;14.02;100.00;97021.47;4953023;28;20084;-75
2022/10/28 06:56:51;;;;;;;0.20;0.20;;;;;;;13.99;100.00;97021.97;4937218;28;20047;-77
2022/10/28 06:59:37;;;;;;;0.10;0.10;;;;;;;13.98;100.00;97019.53;4950833;28;20693;-77
2022/10/28 07:02:23;;;;;;;0.10;0.10;;;;;;;13.95;100.00;97015.47;4950724;28;20640;-77
2022/10/28 07:05:09;;;;;;;0.10;0.10;;;;;;;13.91;100.00;97015.16;4953860;28;20264;-76
2022/10/28 07:07:55;;;;;;;0.20;0.20;;;;;;;13.95;100.00;97026.25;4953054;28;20451;-76
2022/10/28 07:10:41;;;;;;;0.15;0.10;;;;;;;13.97;100.00;97028.66;4952167;28;20038;-76
2022/10/28 07:13:27;;;;;;;0.17;0.17;;;;;;;13.93;100.00;97015.75;4949313;28;20042;-76
2022/10/28 07:16:13;;;;;;;0.10;0.10;;;;;;;13.92;100.00;97014.09;4952597;28;20671;-76
2022/10/28 07:18:59;;;;;;;0.10;0.10;;;;;;;13.95;100.00;97015.47;4953317;28;20499;-76
2022/10/28 07:21:47;;;;;;;0.10;0.10;;;;;;;13.98;100.00;97019.53;4953171;28;20045;-76
2022/10/28 07:24:32;;;;;;;0.10;0.10;;;;;;;14.07;100.00;97018.78;4958009;28;20510;-75
2022/10/28 07:27:18;;;;;;;0.10;0.10;;;;;;;14.08;100.00;97025.78;4954166;28;20093;-77
2022/10/28 07:30:05;;;;;;;0.10;0.10;;;;;;;14.12;100.00;97036.88;4955759;28;20561;-76
2022/10/28 07:32:51;;;;;;;0.10;0.10;;;;;;;14.17;100.00;97032.34;4954028;28;20093;-76
2022/10/28 07:35:37;;;;;;;0.20;0.20;;;;;;;14.20;100.00;97033.72;4955197;28;20047;-78
2022/10/28 07:38:23;;;;;;;0.10;0.10;;;;;;;14.27;100.00;97025.41;4951993;28;20070;-76
2022/10/28 07:41:09;;;;;;;0.32;0.20;;;;;;;14.37;100.00;97036.25;4954238;28;20426;-76
2022/10/28 07:43:55;;;;;;;0.10;0.10;;;;;;;14.47;100.00;97028.25;4956286;28;20047;-76
2022/10/28 07:46:41;;;;;;;0.10;0.10;;;;;;;14.55;100.00;97035.03;4950917;28;20504;-77
2022/10/28 07:49:27;;;;;;;0.10;0.10;;;;;;;14.55;100.00;97033.16;4956842;28;20089;-76
2022/10/28 07:52:13;;;;;;;0.10;0.10;;;;;;;14.55;100.00;97049.31;4953807;28;20182;-78
2022/10/28 07:54:59;;;;;;;0.20;0.20;;;;;;;14.57;100.00;97041.81;4953900;28;20167;-76
2022/10/28 07:57:45;;;;;;;0.10;0.10;;;;;;;14.56;100.00;97042.91;4953035;28;20149;-78
2022/10/28 08:00:31;;;;;;;0.10;0.10;;;;;;;14.55;100.00;97041.25;4954371;28;20054;-78
2022/10/28 08:03:17;;;;;;;0.20;0.17;;;;;;;14.55;100.00;97038.56;4953557;28;20052;-78
2022/10/28 08:06:07;;;;;;;0.10;0.10;;;;;;;14.54;100.00;97044.19;4956579;28;20065;-77
2022/10/28 08:08:55;;;;;;;0.15;0.15;;;;;;;14.50;100.00;97049.31;4957610;28;20039;-76
2022/10/28 08:11:40;;;;;;;0.20;0.15;;;;;;;14.49;100.00;97047.69;4951795;28;20036;-77
2022/10/28 08:14:26;;;;;;;0.10;0.10;;;;;;;14.54;100.00;97045.00;4953212;28;20554;-77
2022/10/28 08:17:12;;;;;;;0.10;0.10;;;;;;;14.55;100.00;97057.41;4956862;28;20050;-78
2022/10/28 08:19:58;;;;;;;0.20;0.10;;;;;;;14.57;100.00;97046.41;4954641;28;20105;-75
2022/10/28 08:22:44;;;;;;;0.10;0.10;;;;;;;14.59;100.00;97052.31;4952805;28;20046;-76
2022/10/28 08:25:30;;;;;;;0.00;0.00;;;;;;;14.59;100.00;97045.06;4953483;28;20522;-74
2022/10/28 08:28:16;;;;;;;0.20;0.20;;;;;;;14.65;100.00;97046.72;4953474;28;20525;-75
2022/10/28 08:31:07;;;;;;;0.10;0.10;;;;;;;14.72;100.00;97047.31;4957645;28;20057;-75
2022/10/28 08:33:53;;;;;;;0.20;0.20;;;;;;;14.81;100.00;97036.84;4956642;28;20180;-75
2022/10/28 08:36:39;;;;;;;0.10;0.10;;;;;;;14.94;100.00;97039.06;4949996;28;20349;-75
2022/10/28 08:39:24;;;;;;;0.25;0.20;;;;;;;14.97;100.00;97037.72;4956267;28;20495;-75
2022/10/28 08:42:32;;;;;;;0.20;0.10;;;;;;;14.99;100.00;97035.56;4955298;28;20491;-74
2022/10/28 08:45:38;;;;;;;0.10;0.10;;;;;;;14.99;100.00;97027.50;4954840;28;20605;-75
2022/10/28 08:48:30;;;;;;;0.10;0.10;;;;;;;15.02;100.00;97030.50;4955732;28;20047;-75
2022/10/28 08:51:18;;;;;;;;;;;;;;;15.12;100.00;97040.50;4957133;28;20595;-76
2022/10/28 08:54:10;;;;;;;0.10;0.10;;;;;;;15.09;100.00;97049.09;4956170;28;19922;-76
2022/10/28 08:56:59;;;;;;;0.20;0.20;;;;;;;15.11;100.00;97038.06;4953965;28;20126;-75
2022/10/28 08:59:48;;;;;;;0.20;0.10;;;;;;;15.09;100.00;97030.22;4957306;28;20091;-77
2022/10/28 09:03:11;;;;;;;0.35;0.10;;;;;;;15.28;100.00;97028.69;4954673;28;20076;-76
2022/10/28 09:06:01;;;;;;;0.10;0.10;;;;;;;15.41;100.00;97037.34;4952374;28;20046;-75
2022/10/28 09:08:48;;;;;;;0.20;0.20;;;;;;;15.47;100.00;97031.72;4952325;28;20070;-77
2022/10/28 09:11:47;;;;;;;0.10;0.10;;;;;;;15.57;100.00;97042.53;4954425;28;20463;-75
2022/10/28 09:15:13;;;;;;;0.20;0.10;;;;;;;15.58;100.00;97029.88;4957803;28;20047;-75
2022/10/28 09:18:16;;;;;;;0.10;0.10;;;;;;;15.56;100.00;97042.78;4955015;28;20070;-76
2022/10/28 09:21:11;;;;;;;0.10;0.10;;;;;;;15.59;100.00;97037.69;4940461;28;20065;-75
2022/10/28 09:24:03;;;;;;;0.15;0.10;;;;;;;15.84;100.00;97044.22;4955681;28;20042;-76
2022/10/28 09:27:16;;;;;;;0.20;0.20;;;;;;;16.78;100.00;97033.97;4953999;28;20038;-77
2022/10/28 09:30:36;;;;;;;0.20;0.20;;;;;;;16.86;100.00;97036.09;4953042;28;20047;-75
2022/10/28 09:33:40;;;;;;;0.10;0.10;;;;;;;16.91;100.00;97036.91;4949795;28;20097;-77
2022/10/28 09:36:48;;;;;;;0.20;0.20;;;;;;;17.87;100.00;97045.69;4954442;28;20324;-76
2022/10/28 09:39:45;;;;;;;0.20;0.10;;;;;;;17.66;100.00;97038.75;4957786;28;20038;-77
2022/10/28 09:42:43;;;;;;;0.20;0.10;;;;;;;17.86;100.00;97024.31;4952502;28;20066;-78
2022/10/28 09:45:31;;;;;;;0.10;0.10;;;;;;;17.90;100.00;97028.06;4957492;28;20046;-77
2022/10/28 09:48:48;;;;;;;0.20;0.20;;;;;;;20.02;100.00;97018.72;4955037;28;20043;-77
2022/10/28 09:51:36;;;;;;;0.20;0.20;;;;;;;21.40;100.00;97025.25;4952237;28;20137;-78
2022/10/28 09:54:50;;;;;;;0.20;0.20;;;;;;;20.18;100.00;97023.91;4957340;28;20050;-77
2022/10/28 09:57:36;;;;;;;0.10;0.10;;;;;;;19.13;100.00;97034.00;4955449;28;20459;-77
2022/10/28 10:00:22;;;;;;;0.22;0.20;;;;;;;19.60;100.00;97037.78;4954460;28;20039;-77
2022/10/28 10:03:08;;;;;;;0.10;0.10;;;;;;;20.05;100.00;97047.19;4956344;28;20043;-77
2022/10/28 10:05:58;;;;;;;0.20;0.20;;;;;;;19.61;100.00;97044.81;4962380;28;20051;-76
2022/10/28 10:08:44;;;;;;;0.10;0.10;;;;;;;19.58;100.00;97040.78;4956823;28;20046;-77
2022/10/28 10:11:45;;;;;;;0.08;0.08;;;;;;;19.19;100.00;97062.69;4956275;28;20043;-76
2022/10/28 10:14:58;;;;;;;0.10;0.10;;;;;;;19.45;100.00;97050.44;4938697;28;20379;-76
2022/10/28 10:17:46;;;;;;;0.13;0.13;;;;;;;19.13;100.00;97051.09;4946356;28;20296;-77
2022/10/28 10:21:05;;;;;;;0.13;0.13;;;;;;;20.21;100.00;97054.00;4957095;28;20043;-77
2022/10/28 10:23:50;;;;;;;0.32;0.20;;;;;;;21.00;100.00;97047.78;4929898;28;20050;-76
2022/10/28 10:26:36;;;;;;;0.10;0.10;;;;;;;20.44;100.00;97056.94;4957536;28;20660;-77
2022/10/28 10:29:23;;;;;;;0.10;0.10;;;;;;;23.15;100.00;97039.88;4956647;28;20050;-78
2022/10/28 10:32:21;;;;;;;0.10;0.10;;;;;;;24.47;92.81;97047.97;4954668;28;20487;-78
2022/10/28 10:35:13;;;;;;;0.20;0.20;;;;;;;26.32;81.26;97039.03;4953667;28;20449;-77
2022/10/28 10:38:01;;;;;;;0.10;0.10;;;;;;;23.45;96.67;97043.66;4612721;28;10000489;-77
2022/10/28 10:40:51;;;;;;;0.10;0.10;;;;;;;23.64;95.22;97040.66;4957935;28;20438;-77
2022/10/28 10:43:40;;;;;;;0.00;0.00;;;;;;;23.58;98.14;97036.47;4947972;28;20799;-78
2022/10/28 10:46:29;;;;;;;0.20;0.20;;;;;;;23.31;98.00;97037.50;4954865;28;20494;-77
2022/10/28 10:49:15;;;;;;;0.20;0.20;;;;;;;25.30;89.21;97033.91;4954041;28;20038;-77
2022/10/28 10:52:06;;;;;;;0.10;0.10;;;;;;;24.28;93.58;97021.75;4955711;28;20460;-78
2022/10/28 10:55:01;;;;;;;0.13;0.13;;;;;;;24.35;92.25;97027.53;4942787;28;20087;-77
2022/10/28 10:57:48;;;;;;;0.10;0.10;;;;;;;24.36;95.88;97011.97;4951715;28;20470;-78
2022/10/28 11:00:37;;;;;;;0.43;0.20;;;;;;;25.63;88.37;97015.66;4952225;28;20054;-77
2022/10/28 11:03:38;;;;;;;0.20;0.20;;;;;;;25.28;86.61;97004.91;4955828;28;20042;-78
2022/10/28 11:06:31;;;;;;;0.10;0.10;;;;;;;25.96;82.29;97001.28;4954075;28;20134;-77
2022/10/28 11:09:32;;;;;;;0.20;0.10;;;;;;;26.21;80.61;97011.22;4957472;28;20047;-78
2022/10/28 11:12:29;;;;;;;0.10;0.10;;;;;;;25.62;85.41;97000.38;4955321;28;20769;-78
2022/10/28 11:15:27;;;;;;;0.10;0.10;;;;;;;25.14;89.69;96998.88;4955801;28;20047;-77
2022/10/28 11:18:20;;;;;;;0.08;0.00;;;;;;;24.34;92.05;96990.38;4953831;28;20669;-77
2022/10/28 11:22:03;;;;;;;0.10;0.10;;;;;;;23.62;97.00;97000.03;4956356;28;20044;-78
2022/10/28 11:25:10;;;;;;;0.10;0.10;;;;;;;22.84;100.00;96996.22;4875070;29;20367;-77
2022/10/28 11:28:20;;;;;;;0.10;0.10;;;;;;;22.52;100.00;97002.78;4874199;29;20747;-78
2022/10/28 11:31:13;;;;;;;0.10;0.10;;;;;;;22.12;100.00;96978.16;4957090;28;20047;-78
2022/10/28 11:34:05;;;;;;;0.20;0.20;;;;;;;22.08;100.00;96989.97;4956656;28;20101;-76
2022/10/28 11:36:56;;;;;;;0.20;0.20;;;;;;;24.56;94.83;96974.91;4956817;28;20560;-78
2022/10/28 11:40:20;;;;;;;0.10;0.10;;;;;;;25.18;89.08;96977.09;4938286;28;20565;-78
2022/10/28 11:43:28;;;;;;;0.10;0.10;;;;;;;24.75;90.65;96975.34;4956217;28;20038;-78
2022/10/28 11:46:41;;;;;;;0.20;0.20;;;;;;;25.99;85.16;96974.00;4958155;28;20051;-78
2022/10/28 11:49:57;;;;;;;0.10;0.10;;;;;;;24.50;91.97;96974.25;4941934;28;20042;-77
2022/10/28 11:53:05;;;;;;;0.10;0.10;;;;;;;25.11;90.97;96966.66;4937860;28;20452;-76
2022/10/28 11:56:14;;;;;;;0.10;0.10;;;;;;;24.01;94.29;96976.41;4953692;28;20071;-76
2022/10/28 11:59:04;;;;;;;0.10;0.10;;;;;;;23.47;98.79;96966.88;4958067;28;20046;-77
2022/10/28 12:02:09;;;;;;;0.20;0.20;;;;;;;24.65;93.19;96962.00;4959605;28;20113;-76
2022/10/28 12:05:19;;;;;;;0.22;0.20;;;;;;;26.08;87.24;96960.22;4943277;28;20082;-76
2022/10/28 12:08:18;;;;;;;0.10;0.10;;;;;;;25.95;86.62;96953.88;4956545;28;20042;-76
2022/10/28 12:11:58;;;;;;;0.20;0.20;;;;;;;27.19;79.51;96945.59;4941069;28;20047;-76
2022/10/28 12:15:14;;;;;;;0.10;0.10;;;;;;;27.57;77.22;96953.44;4901750;28;20044;-76
2022/10/28 12:18:28;;;;;;;0.10;0.10;;;;;;;26.11;85.97;96948.56;4956074;28;20043;-77
2022/10/28 12:21:35;;;;;;;0.10;0.10;;;;;;;25.85;86.73;96945.25;4956450;28;20575;-76
2022/10/28 12:24:23;;;;;;;0.10;0.10;;;;;;;25.96;85.91;96946.44;4957100;28;20411;-76
2022/10/28 12:27:18;;;;;;;0.10;0.10;;;;;;;26.40;82.97;96941.38;4958334;28;20080;-76
2022/10/28 12:30:13;;;;;;;0.10;0.10;;;;;;;27.25;77.51;96952.47;4955787;28;20814;-76
2022/10/28 12:33:12;;;;;;;0.10;0.10;;;;;;;26.72;82.19;96939.72;4954218;28;20530;-76
2022/10/28 12:36:07;;;;;;;0.10;0.10;;;;;;;25.42;87.92;96938.94;4956648;28;20046;-76
2022/10/28 12:39:04;;;;;;;0.10;0.10;;;;;;;24.67;93.84;96937.88;4958105;28;20042;-76
2022/10/28 12:42:09;;;;;;;0.10;0.10;;;;;;;23.84;97.07;96941.69;4945078;28;20043;-76
2022/10/28 12:44:59;;;;;;;0.10;0.10;;;;;;;24.65;94.39;96940.91;4958405;28;20043;-75
2022/10/28 12:47:55;;;;;;;0.10;0.10;;;;;;;25.61;89.24;96941.22;4956260;28;20466;-76
2022/10/28 12:50:57;;;;;;;0.30;0.20;;;;;;;26.91;83.22;96945.44;4962615;28;20039;-77
2022/10/28 12:53:59;;;;;;;0.20;0.20;;;;;;;28.06;75.23;96947.03;4960006;28;20142;-78
2022/10/28 12:56:51;;;;;;;0.15;0.15;;;;;;;28.62;69.94;96935.97;4956712;28;20054;-77
2022/10/28 12:59:57;;;;;;;0.00;0.00;;;;;;;27.36;76.13;96934.34;4958709;28;20059;-78
2022/10/28 13:02:54;;;;;;;0.10;0.10;;;;;;;26.72;84.13;96945.22;4959673;28;20127;-77
2022/10/28 13:05:49;;;;;;;0.15;0.15;;;;;;;27.44;78.28;96936.19;4959173;28;20054;-76
2022/10/28 13:08:42;;;;;;;0.17;0.17;;;;;;;28.14;73.16;96940.56;4958565;28;20054;-77
2022/10/28 13:11:31;;;;;;;0.10;0.10;;;;;;;28.18;74.38;96938.75;4960021;28;20493;-76
2022/10/28 13:14:26;;;;;;;0.20;0.20;;;;;;;28.22;75.44;96936.88;4955730;28;20046;-77
2022/10/28 13:17:34;;;;;;;0.10;0.10;;;;;;;26.45;85.69;96941.16;4961416;28;20779;-78
2022/10/28 13:20:46;;;;;;;0.00;0.00;;;;;;;25.32;90.05;96954.97;4959681;28;20050;-77
2022/10/28 13:23:42;;;;;;;0.15;0.10;;;;;;;26.28;86.14;96950.34;4957011;28;20070;-77